Time;durP1;ratioP1;P1;durP2;ratioP2;P2;SDS_P1;SDS_P2;PMS_P1;PMS_P2;Temp;Humidity;BMP_temperature;BMP_pressure;BME280_temperature;BME280_humidity;BME280_pressure;Samples;Min_cycle;Max_cycle;Signal;HPM_P1;HPM_P2
2022/04/13 00:01:49;;;;;;;116.57;106.47;;;;;;;;;;5099847;28;20443;-70
2022/04/13 00:04:22;;;;;;;97.43;89.77;;;;;;;;;;5099815;28;20871;-70
2022/04/13 00:06:50;;;;;;;77.17;71.80;;;;;;;;;;5099853;28;20439;-70
2022/04/13 00:09:20;;;;;;;81.70;75.83;;;;;;;;;;5100017;28;20470;-71
2022/04/13 00:11:50;;;;;;;112.27;103.30;;;;;;;;;;5099813;28;20863;-70
2022/04/13 00:14:18;;;;;;;121.97;110.40;;;;;;;;;;5099009;28;20451;-70
2022/04/13 00:16:46;;;;;;;119.97;106.43;;;;;;;;;;5099168;28;20490;-70
2022/04/13 00:19:20;;;;;;;122.13;107.33;;;;;;;;;;5099336;28;20463;-71
2022/04/13 00:21:50;;;;;;;131.77;118.47;;;;;;;;;;5099424;28;20727;-70
2022/04/13 00:24:18;;;;;;;131.93;118.97;;;;;;;;;;5099018;28;20451;-70
2022/04/13 00:26:46;;;;;;;124.47;112.23;;;;;;;;;;5099161;28;20790;-70
2022/04/13 00:29:16;;;;;;;113.20;103.10;;;;;;;;;;5099430;28;20451;-70
2022/04/13 00:31:45;;;;;;;121.83;109.40;;;;;;;;;;5098952;28;20563;-71
2022/04/13 00:34:13;;;;;;;121.77;110.57;;;;;;;;;;5099325;28;20542;-71
2022/04/13 00:36:41;;;;;;;119.50;107.83;;;;;;;;;;5099407;28;20487;-71
2022/04/13 00:39:14;;;;;;;125.23;110.03;;;;;;;;;;5099235;28;20455;-70
2022/04/13 00:41:41;;;;;;;129.97;115.70;;;;;;;;;;5099448;28;20505;-70
2022/04/13 00:44:10;;;;;;;88.83;82.67;;;;;;;;;;5099122;28;20455;-70
2022/04/13 00:46:38;;;;;;;128.17;116.27;;;;;;;;;;5098873;28;20759;-69
2022/04/13 00:49:08;;;;;;;126.30;113.40;;;;;;;;;;5099116;28;20451;-71
2022/04/13 00:51:37;;;;;;;123.67;111.77;;;;;;;;;;5098358;28;20539;-72
2022/04/13 00:54:06;;;;;;;131.03;111.63;;;;;;;;;;5098505;28;20520;-72
2022/04/13 00:56:43;;;;;;;163.33;128.77;;;;;;;;;;5098347;28;20486;-72
2022/04/13 00:59:14;;;;;;;155.37;105.97;;;;;;;;;;5098582;28;20542;-70
2022/04/13 01:01:42;;;;;;;125.90;112.20;;;;;;;;;;5098102;28;20878;-70
2022/04/13 01:04:12;;;;;;;141.77;108.30;;;;;;;;;;5098753;28;20792;-71
2022/04/13 01:06:40;;;;;;;135.43;115.03;;;;;;;;;;5098579;28;20452;-71
2022/04/13 01:09:07;;;;;;;129.57;111.97;;;;;;;;;;5098550;28;20471;-72
2022/04/13 01:11:35;;;;;;;145.20;112.00;;;;;;;;;;5097964;28;20521;-71
2022/04/13 01:14:04;;;;;;;145.13;119.37;;;;;;;;;;5098192;28;21104;-71
2022/04/13 01:16:40;;;;;;;120.37;106.37;;;;;;;;;;5098312;28;20955;-72
2022/04/13 01:19:13;;;;;;;114.20;102.80;;;;;;;;;;5098623;28;20466;-72
2022/04/13 01:21:47;;;;;;;119.40;106.87;;;;;;;;;;5098005;28;20447;-71
2022/04/13 01:24:17;;;;;;;111.33;100.10;;;;;;;;;;5097840;28;21029;-71
2022/04/13 01:26:45;;;;;;;109.30;98.80;;;;;;;;;;5098098;28;20527;-70
2022/04/13 01:29:13;;;;;;;121.67;108.87;;;;;;;;;;5098213;28;20455;-71
2022/04/13 01:31:41;;;;;;;117.67;105.37;;;;;;;;;;5098507;28;20517;-70
2022/04/13 01:34:10;;;;;;;114.90;103.33;;;;;;;;;;5097859;28;20531;-71
2022/04/13 01:36:38;;;;;;;146.30;112.67;;;;;;;;;;5097594;28;20480;-70
2022/04/13 01:39:18;;;;;;;131.40;106.73;;;;;;;;;;5098055;28;20463;-72
2022/04/13 01:41:48;;;;;;;112.50;101.63;;;;;;;;;;5098037;28;20542;-72
2022/04/13 01:44:17;;;;;;;118.37;103.00;;;;;;;;;;5097351;28;20443;-71
2022/04/13 01:46:47;;;;;;;139.30;104.37;;;;;;;;;;5097449;28;20453;-71
2022/04/13 01:49:15;;;;;;;139.43;107.43;;;;;;;;;;5098159;28;20844;-71
2022/04/13 01:51:43;;;;;;;162.60;116.27;;;;;;;;;;5097612;28;20451;-71
2022/04/13 01:54:11;;;;;;;143.70;114.77;;;;;;;;;;5096761;28;20455;-69
2022/04/13 01:56:38;;;;;;;146.60;113.47;;;;;;;;;;5097488;28;20515;-70
2022/04/13 01:59:19;;;;;;;143.40;103.70;;;;;;;;;;5097794;28;20455;-72
2022/04/13 02:01:47;;;;;;;132.80;107.27;;;;;;;;;;5097162;28;20454;-71
2022/04/13 02:04:17;;;;;;;147.80;111.83;;;;;;;;;;5097195;28;20459;-72
2022/04/13 02:06:45;;;;;;;142.07;108.63;;;;;;;;;;5097175;28;20447;-71
2022/04/13 02:11:57;;;;;;;149.50;105.30;;;;;;;;;;5096792;28;20475;-70
2022/04/13 02:14:31;;;;;;;160.27;110.60;;;;;;;;;;5096771;28;20439;-70
2022/04/13 02:16:59;;;;;;;167.63;107.20;;;;;;;;;;5097515;28;20486;-71
2022/04/13 02:19:27;;;;;;;190.20;105.87;;;;;;;;;;5097476;28;20491;-70
2022/04/13 02:21:58;;;;;;;136.90;116.73;;;;;;;;;;5096779;28;20510;-71
2022/04/13 02:24:26;;;;;;;146.10;106.23;;;;;;;;;;5096800;28;20459;-70
2022/04/13 02:26:59;;;;;;;164.50;98.73;;;;;;;;;;5096820;28;20451;-71
2022/04/13 02:29:28;;;;;;;215.40;114.03;;;;;;;;;;5097226;28;20508;-72
2022/04/13 02:31:59;;;;;;;201.63;102.73;;;;;;;;;;5097039;28;20450;-70
2022/04/13 02:34:33;;;;;;;216.47;102.43;;;;;;;;;;5096744;28;20546;-71
2022/04/13 02:37:02;;;;;;;195.83;101.63;;;;;;;;;;5096722;28;20514;-72
2022/04/13 02:42:12;;;;;;;221.90;114.77;;;;;;;;;;5095153;28;20460;-71
2022/04/13 02:44:41;;;;;;;188.60;97.07;;;;;;;;;;5096175;28;20458;-71
2022/04/13 02:47:09;;;;;;;168.57;100.30;;;;;;;;;;5096467;28;20452;-71
2022/04/13 02:49:37;;;;;;;186.13;101.27;;;;;;;;;;5096106;28;20531;-71
2022/04/13 02:52:04;;;;;;;223.73;106.17;;;;;;;;;;5096151;28;20444;-71
2022/04/13 02:54:34;;;;;;;167.63;103.67;;;;;;;;;;5096074;28;20450;-71
2022/04/13 02:57:07;;;;;;;188.87;101.00;;;;;;;;;;5096250;28;20484;-71
2022/04/13 02:59:35;;;;;;;148.40;100.93;;;;;;;;;;5096252;28;20867;-71
2022/04/13 03:02:07;;;;;;;158.53;102.57;;;;;;;;;;5095868;28;20463;-72
2022/04/13 03:04:34;;;;;;;168.57;100.13;;;;;;;;;;5096218;28;20432;-71
2022/04/13 03:07:02;;;;;;;141.07;99.10;;;;;;;;;;5095740;28;20444;-72
2022/04/13 03:09:30;;;;;;;127.00;93.57;;;;;;;;;;5096239;28;20544;-72
2022/04/13 03:11:58;;;;;;;128.87;93.07;;;;;;;;;;5095577;28;20509;-71
2022/04/13 03:14:26;;;;;;;152.50;99.83;;;;;;;;;;5095574;28;20512;-71
2022/04/13 03:16:54;;;;;;;132.93;97.23;;;;;;;;;;5096163;28;20559;-71
2022/04/13 03:19:24;;;;;;;144.87;97.93;;;;;;;;;;5095804;28;20929;-71
2022/04/13 03:21:54;;;;;;;163.57;98.67;;;;;;;;;;5095625;28;20762;-72
2022/04/13 03:24:22;;;;;;;154.57;97.17;;;;;;;;;;5096342;28;20774;-71
2022/04/13 03:26:49;;;;;;;153.30;93.23;;;;;;;;;;5095999;28;20471;-71
2022/04/13 03:29:17;;;;;;;121.90;90.73;;;;;;;;;;5096247;28;20452;-71
2022/04/13 03:31:46;;;;;;;142.87;89.73;;;;;;;;;;5076100;28;20444;-71
2022/04/13 03:34:14;;;;;;;153.73;91.33;;;;;;;;;;5075834;28;20459;-71
2022/04/13 03:36:43;;;;;;;172.50;103.53;;;;;;;;;;5088972;28;20471;-71
2022/04/13 03:39:11;;;;;;;152.00;97.13;;;;;;;;;;5095850;28;20451;-71
2022/04/13 03:41:39;;;;;;;157.13;100.47;;;;;;;;;;5095548;28;21132;-71
2022/04/13 03:44:07;;;;;;;167.27;99.63;;;;;;;;;;5095993;28;20474;-71
2022/04/13 03:46:35;;;;;;;160.87;93.63;;;;;;;;;;5096075;28;20512;-71
2022/04/13 03:49:03;;;;;;;148.90;98.87;;;;;;;;;;5095691;28;20471;-71
2022/04/13 03:51:31;;;;;;;153.60;94.10;;;;;;;;;;5094967;28;20478;-71
2022/04/13 03:54:00;;;;;;;173.33;96.37;;;;;;;;;;5096015;28;20459;-71
2022/04/13 03:56:29;;;;;;;141.87;91.43;;;;;;;;;;5095259;28;20490;-71
2022/04/13 03:58:57;;;;;;;187.37;106.60;;;;;;;;;;5095628;28;20451;-71
2022/04/13 04:01:25;;;;;;;163.20;98.07;;;;;;;;;;5095510;28;20711;-71
2022/04/13 04:03:53;;;;;;;149.73;100.00;;;;;;;;;;5095788;28;20489;-71
2022/04/13 04:06:21;;;;;;;156.80;98.40;;;;;;;;;;5095494;28;20816;-70
2022/04/13 04:08:49;;;;;;;159.23;102.17;;;;;;;;;;5095534;28;20476;-70
2022/04/13 04:11:19;;;;;;;154.00;96.23;;;;;;;;;;5094894;28;20451;-71
2022/04/13 04:13:47;;;;;;;151.20;94.63;;;;;;;;;;5095317;28;20467;-71
2022/04/13 04:16:16;;;;;;;166.73;93.60;;;;;;;;;;5095070;28;20514;-71
2022/04/13 04:18:48;;;;;;;106.23;85.67;;;;;;;;;;5097891;28;20462;-71
2022/04/13 04:21:16;;;;;;;166.27;103.87;;;;;;;;;;5098772;28;20867;-71
2022/04/13 04:23:44;;;;;;;169.33;98.33;;;;;;;;;;5098359;28;20459;-71
2022/04/13 04:26:12;;;;;;;188.90;99.33;;;;;;;;;;5099028;28;20443;-71
2022/04/13 04:28:41;;;;;;;189.30;99.07;;;;;;;;;;5099442;28;20458;-71
2022/04/13 04:31:09;;;;;;;196.77;93.50;;;;;;;;;;5098640;28;20462;-72
2022/04/13 04:33:37;;;;;;;212.93;101.50;;;;;;;;;;5098511;28;20691;-70
2022/04/13 04:36:05;;;;;;;165.90;95.23;;;;;;;;;;5099046;28;20471;-71
2022/04/13 04:38:33;;;;;;;190.47;95.73;;;;;;;;;;5098455;28;20700;-71
2022/04/13 04:41:01;;;;;;;171.97;101.47;;;;;;;;;;5097937;28;20455;-71
2022/04/13 04:43:29;;;;;;;179.13;98.30;;;;;;;;;;5084080;28;20530;-71
2022/04/13 04:45:58;;;;;;;186.00;94.10;;;;;;;;;;5098010;28;20576;-70
2022/04/13 04:48:26;;;;;;;193.43;98.80;;;;;;;;;;5094821;28;20479;-70
2022/04/13 04:50:54;;;;;;;217.73;105.13;;;;;;;;;;5098560;28;20485;-70
2022/04/13 04:53:21;;;;;;;199.73;99.87;;;;;;;;;;5098409;28;20466;-70
2022/04/13 04:55:49;;;;;;;206.73;102.47;;;;;;;;;;5098355;28;20796;-70
2022/04/13 04:58:19;;;;;;;210.23;103.43;;;;;;;;;;5098203;28;20531;-70
2022/04/13 05:00:47;;;;;;;212.37;101.83;;;;;;;;;;5097558;28;20458;-70
2022/04/13 05:03:16;;;;;;;208.07;108.23;;;;;;;;;;5098078;28;20875;-70
2022/04/13 05:05:44;;;;;;;198.90;101.70;;;;;;;;;;5097003;28;20954;-70
2022/04/13 05:08:13;;;;;;;177.00;99.17;;;;;;;;;;5097836;28;20785;-71
2022/04/13 05:10:41;;;;;;;132.20;93.67;;;;;;;;;;5097980;28;20832;-71
2022/04/13 05:13:09;;;;;;;165.43;99.40;;;;;;;;;;5097079;28;20493;-71
2022/04/13 05:15:36;;;;;;;166.27;97.47;;;;;;;;;;5097622;28;20451;-71
2022/04/13 05:18:04;;;;;;;168.60;98.60;;;;;;;;;;5096816;28;20915;-71
2022/04/13 05:20:38;;;;;;;168.10;93.27;;;;;;;;;;5096899;28;20448;-72
2022/04/13 05:23:06;;;;;;;172.97;88.83;;;;;;;;;;5097546;28;20470;-70
2022/04/13 05:25:33;;;;;;;169.47;99.77;;;;;;;;;;5097315;28;20770;-70
2022/04/13 05:28:01;;;;;;;160.27;91.67;;;;;;;;;;5096931;28;20464;-71
2022/04/13 05:30:32;;;;;;;147.67;98.43;;;;;;;;;;5096337;28;20451;-71
2022/04/13 05:33:01;;;;;;;132.37;93.63;;;;;;;;;;5097181;28;20470;-71
2022/04/13 05:35:29;;;;;;;158.17;94.73;;;;;;;;;;5097894;28;20448;-71
2022/04/13 05:38:05;;;;;;;180.47;105.10;;;;;;;;;;5097737;28;20483;-72
2022/04/13 05:40:32;;;;;;;161.13;99.83;;;;;;;;;;5097413;28;20440;-71
2022/04/13 05:43:00;;;;;;;162.60;98.50;;;;;;;;;;5097463;28;20570;-71
2022/04/13 05:45:27;;;;;;;137.40;99.57;;;;;;;;;;5097893;28;20922;-71
2022/04/13 05:47:56;;;;;;;155.43;92.47;;;;;;;;;;5097357;28;20450;-71
2022/04/13 05:50:24;;;;;;;163.67;100.57;;;;;;;;;;5097006;28;20727;-71
2022/04/13 05:52:52;;;;;;;158.93;94.13;;;;;;;;;;5096190;28;20550;-71
2022/04/13 05:55:24;;;;;;;153.40;94.97;;;;;;;;;;5089341;28;20933;-72
2022/04/13 05:57:52;;;;;;;170.30;104.57;;;;;;;;;;5076240;28;20484;-72
2022/04/13 06:00:26;;;;;;;157.87;96.47;;;;;;;;;;5076967;28;20464;-71
2022/04/13 06:02:54;;;;;;;168.20;96.17;;;;;;;;;;5076265;28;20923;-71
2022/04/13 06:05:24;;;;;;;172.10;101.47;;;;;;;;;;5075811;28;20517;-71
2022/04/13 06:07:53;;;;;;;172.00;105.53;;;;;;;;;;5076454;28;20451;-72
2022/04/13 06:10:32;;;;;;;173.57;99.73;;;;;;;;;;5078140;28;20463;-72
2022/04/13 06:13:00;;;;;;;173.33;105.27;;;;;;;;;;5076547;28;20484;-71
2022/04/13 06:15:31;;;;;;;168.00;98.93;;;;;;;;;;5083727;28;20518;-72
2022/04/13 06:17:59;;;;;;;170.77;103.97;;;;;;;;;;5095305;28;20907;-72
2022/04/13 06:20:26;;;;;;;187.93;106.67;;;;;;;;;;5095431;28;20484;-72
2022/04/13 06:22:54;;;;;;;181.53;102.40;;;;;;;;;;5095362;28;20455;-71
2022/04/13 06:25:22;;;;;;;203.43;113.77;;;;;;;;;;5095643;28;20473;-71
2022/04/13 06:27:52;;;;;;;213.73;116.40;;;;;;;;;;5094482;28;21068;-71
2022/04/13 06:30:26;;;;;;;197.50;103.33;;;;;;;;;;5094844;28;20459;-72
2022/04/13 06:32:54;;;;;;;221.77;114.80;;;;;;;;;;5094042;28;20739;-71
2022/04/13 06:35:23;;;;;;;219.57;109.63;;;;;;;;;;5095922;28;20527;-71
2022/04/13 06:37:51;;;;;;;231.03;115.07;;;;;;;;;;5091462;28;20494;-71
2022/04/13 06:40:19;;;;;;;222.83;113.67;;;;;;;;;;5086845;28;20451;-72
2022/04/13 06:42:48;;;;;;;195.87;108.20;;;;;;;;;;5096906;28;20456;-72
2022/04/13 06:45:18;;;;;;;222.70;115.37;;;;;;;;;;5079728;28;20449;-71
2022/04/13 06:47:48;;;;;;;235.77;114.20;;;;;;;;;;5075191;28;20455;-70
2022/04/13 06:50:15;;;;;;;249.37;115.00;;;;;;;;;;5074749;28;20456;-71
2022/04/13 06:52:44;;;;;;;240.83;116.70;;;;;;;;;;5094315;28;20472;-71
2022/04/13 06:55:12;;;;;;;228.83;114.93;;;;;;;;;;5093963;28;20448;-72
2022/04/13 06:57:40;;;;;;;237.30;137.97;;;;;;;;;;5094972;28;20491;-70
2022/04/13 07:00:09;;;;;;;195.47;119.17;;;;;;;;;;5094943;28;20452;-71
2022/04/13 07:02:39;;;;;;;256.57;121.27;;;;;;;;;;5094780;28;20542;-70
2022/04/13 07:05:07;;;;;;;248.77;135.77;;;;;;;;;;5095275;28;20477;-71
2022/04/13 07:07:35;;;;;;;234.63;117.00;;;;;;;;;;5094140;28;20746;-71
2022/04/13 07:10:04;;;;;;;222.63;122.03;;;;;;;;;;5095338;28;20568;-72
2022/04/13 07:12:39;;;;;;;219.70;126.27;;;;;;;;;;5074308;28;20456;-71
2022/04/13 07:15:07;;;;;;;220.53;126.40;;;;;;;;;;5085621;28;20455;-71
2022/04/13 07:17:43;;;;;;;220.87;128.60;;;;;;;;;;5092861;28;20507;-71
2022/04/13 07:20:14;;;;;;;216.83;135.33;;;;;;;;;;5094518;28;20479;-72
2022/04/13 07:22:47;;;;;;;179.40;125.50;;;;;;;;;;5105642;28;20463;-71
2022/04/13 07:25:16;;;;;;;243.97;130.47;;;;;;;;;;5115224;28;20443;-72
2022/04/13 07:27:46;;;;;;;212.23;133.83;;;;;;;;;;5108815;28;20463;-70
2022/04/13 07:30:16;;;;;;;241.13;129.70;;;;;;;;;;5093902;28;20458;-72
2022/04/13 07:32:52;;;;;;;221.87;140.37;;;;;;;;;;5095404;28;20487;-71
2022/04/13 07:35:24;;;;;;;194.90;147.00;;;;;;;;;;5096039;28;20506;-71
2022/04/13 07:37:54;;;;;;;212.90;144.73;;;;;;;;;;5094688;28;20548;-71
2022/04/13 07:40:24;;;;;;;210.90;149.50;;;;;;;;;;5096467;28;20542;-71
2022/04/13 07:42:52;;;;;;;213.53;137.43;;;;;;;;;;5084763;28;20712;-70
2022/04/13 07:45:22;;;;;;;234.50;140.83;;;;;;;;;;5093620;28;20554;-71
2022/04/13 07:47:51;;;;;;;244.30;153.60;;;;;;;;;;5093955;28;20456;-70
2022/04/13 07:50:39;;;;;;;170.60;152.37;;;;;;;;;;5093917;28;20447;-71
2022/04/13 07:53:08;;;;;;;211.00;155.90;;;;;;;;;;5094368;28;20914;-70
2022/04/13 07:55:36;;;;;;;164.60;132.47;;;;;;;;;;5099898;28;20594;-70
2022/04/13 07:58:04;;;;;;;213.27;158.03;;;;;;;;;;5098121;28;20483;-71
2022/04/13 08:00:31;;;;;;;195.13;153.13;;;;;;;;;;5096956;28;20455;-71
2022/04/13 08:03:13;;;;;;;200.27;155.93;;;;;;;;;;5098190;28;20538;-70
2022/04/13 08:05:44;;;;;;;220.87;161.40;;;;;;;;;;5079437;28;20854;-71
2022/04/13 08:08:12;;;;;;;208.47;156.00;;;;;;;;;;5098152;28;20804;-71
2022/04/13 08:10:41;;;;;;;177.43;159.03;;;;;;;;;;5096904;28;20555;-70
2022/04/13 08:13:10;;;;;;;167.23;153.00;;;;;;;;;;5098477;28;20456;-69
2022/04/13 08:15:38;;;;;;;179.20;152.47;;;;;;;;;;5098314;28;20534;-70
2022/04/13 08:18:12;;;;;;;172.60;155.43;;;;;;;;;;5087268;28;20488;-69
2022/04/13 08:20:43;;;;;;;210.23;188.10;;;;;;;;;;5078688;28;20736;-71
2022/04/13 08:23:14;;;;;;;197.47;176.10;;;;;;;;;;5095515;28;20524;-71
2022/04/13 08:25:45;;;;;;;213.10;182.63;;;;;;;;;;5097304;28;20436;-72
2022/04/13 08:28:25;;;;;;;241.93;196.67;;;;;;;;;;5096526;28;20486;-72
2022/04/13 08:30:56;;;;;;;237.53;198.37;;;;;;;;;;5096802;28;20459;-72
2022/04/13 08:33:28;;;;;;;238.13;173.70;;;;;;;;;;5097135;28;20711;-72
2022/04/13 08:35:56;;;;;;;257.63;195.77;;;;;;;;;;5097389;28;20523;-70
2022/04/13 08:38:24;;;;;;;273.33;205.07;;;;;;;;;;5097355;28;21074;-71
2022/04/13 08:40:55;;;;;;;261.53;199.73;;;;;;;;;;5096272;28;20528;-71
2022/04/13 08:43:33;;;;;;;262.03;195.43;;;;;;;;;;5097345;28;20902;-72
2022/04/13 08:46:07;;;;;;;277.90;204.47;;;;;;;;;;5096547;28;20463;-71
2022/04/13 08:48:48;;;;;;;233.23;212.40;;;;;;;;;;5095540;28;21053;-71
2022/04/13 08:51:18;;;;;;;213.90;193.10;;;;;;;;;;5096181;28;21160;-72
2022/04/13 08:53:53;;;;;;;238.60;215.40;;;;;;;;;;5095595;28;20820;-74
2022/04/13 08:56:21;;;;;;;233.07;211.50;;;;;;;;;;5096485;28;20471;-72
2022/04/13 08:58:51;;;;;;;233.93;209.17;;;;;;;;;;5095462;28;20475;-73
2022/04/13 09:01:26;;;;;;;266.17;241.10;;;;;;;;;;5096320;28;20550;-73
2022/04/13 09:04:02;;;;;;;234.33;211.93;;;;;;;;;;5093771;28;20534;-72
2022/04/13 09:06:33;;;;;;;259.70;237.50;;;;;;;;;;5095497;28;20447;-72
2022/04/13 09:09:08;;;;;;;244.17;217.57;;;;;;;;;;5090325;28;20460;-72
2022/04/13 09:11:45;;;;;;;248.07;222.83;;;;;;;;;;5094553;28;20447;-72
2022/04/13 09:14:17;;;;;;;280.83;255.73;;;;;;;;;;5115657;28;20443;-71
2022/04/13 09:16:47;;;;;;;253.67;230.63;;;;;;;;;;5109495;28;20448;-71
2022/04/13 09:19:17;;;;;;;288.77;261.47;;;;;;;;;;5091818;28;20531;-72
2022/04/13 09:21:55;;;;;;;287.57;259.10;;;;;;;;;;5091234;28;20567;-71
2022/04/13 09:24:26;;;;;;;285.17;256.27;;;;;;;;;;5074576;28;20788;-72
2022/04/13 09:26:54;;;;;;;311.40;281.67;;;;;;;;;;5075251;28;20491;-73
2022/04/13 09:29:22;;;;;;;297.33;268.23;;;;;;;;;;5073980;28;20445;-72
2022/04/13 09:31:53;;;;;;;294.00;263.50;;;;;;;;;;5088992;28;20524;-71
2022/04/13 09:34:27;;;;;;;274.10;252.57;;;;;;;;;;5094760;28;20447;-73
2022/04/13 09:37:01;;;;;;;290.93;261.23;;;;;;;;;;5079819;28;20558;-72
2022/04/13 09:39:37;;;;;;;294.97;269.57;;;;;;;;;;5088079;28;20485;-72
2022/04/13 09:42:15;;;;;;;319.87;292.27;;;;;;;;;;5094150;28;20497;-71
2022/04/13 09:45:00;;;;;;;322.87;292.57;;;;;;;;;;5082708;28;20468;-72
2022/04/13 09:47:31;;;;;;;331.03;300.83;;;;;;;;;;5073682;28;20444;-73
2022/04/13 09:50:18;;;;;;;353.37;326.47;;;;;;;;;;5074421;28;20471;-72
2022/04/13 09:52:49;;;;;;;342.40;317.23;;;;;;;;;;5091778;28;20754;-72
2022/04/13 09:58:20;;;;;;;368.80;335.80;;;;;;;;;;5091319;28;20964;-72
2022/04/13 10:00:55;;;;;;;350.87;316.70;;;;;;;;;;5099519;28;20469;-72
2022/04/13 10:03:40;;;;;;;382.43;345.83;;;;;;;;;;5110816;28;20443;-72
2022/04/13 10:06:31;;;;;;;392.60;361.33;;;;;;;;;;5090059;28;20505;-72
2022/04/13 10:09:28;;;;;;;363.17;332.83;;;;;;;;;;5087111;28;20435;-73
2022/04/13 10:12:09;;;;;;;379.70;348.03;;;;;;;;;;5113343;28;20512;-72
2022/04/13 10:14:46;;;;;;;377.83;344.60;;;;;;;;;;5082449;28;20478;-72
2022/04/13 10:17:16;;;;;;;398.43;366.80;;;;;;;;;;5098115;28;20439;-72
2022/04/13 10:19:59;;;;;;;377.37;346.43;;;;;;;;;;5093736;28;20491;-72
2022/04/13 10:25:42;;;;;;;409.20;378.10;;;;;;;;;;5088495;28;20448;-72
2022/04/13 10:28:16;;;;;;;372.80;343.50;;;;;;;;;;5072934;28;20908;-73
2022/04/13 10:30:50;;;;;;;390.17;360.63;;;;;;;;;;5082098;28;20895;-72
2022/04/13 10:33:18;;;;;;;394.73;364.10;;;;;;;;;;5104417;27;20448;-72
2022/04/13 10:35:49;;;;;;;378.33;349.40;;;;;;;;;;5098129;28;20921;-72
2022/04/13 10:38:28;;;;;;;386.03;355.83;;;;;;;;;;5092550;28;20498;-72
2022/04/13 10:41:01;;;;;;;396.80;366.93;;;;;;;;;;5093833;28;20463;-72
2022/04/13 10:43:40;;;;;;;444.70;413.37;;;;;;;;;;5092594;28;20749;-72
2022/04/13 10:46:15;;;;;;;348.17;330.37;;;;;;;;;;5074422;28;20455;-72
2022/04/13 10:51:37;;;;;;;395.27;371.63;;;;;;;;;;5082404;28;20891;-71
2022/04/13 10:54:35;;;;;;;442.33;416.13;;;;;;;;;;5087893;28;20513;-72
2022/04/13 10:57:05;;;;;;;403.57;377.70;;;;;;;;;;5074143;28;20801;-71
2022/04/13 10:59:34;;;;;;;439.57;414.37;;;;;;;;;;5075632;28;21002;-71
2022/04/13 11:02:21;;;;;;;410.17;384.57;;;;;;;;;;5084447;28;20495;-72
2022/04/13 11:04:50;;;;;;;443.13;418.33;;;;;;;;;;5089108;28;20467;-71
2022/04/13 11:07:27;;;;;;;443.90;416.20;;;;;;;;;;5083944;28;20494;-71
2022/04/13 11:10:02;;;;;;;418.53;392.57;;;;;;;;;;5086608;28;20455;-72
2022/04/13 11:12:39;;;;;;;472.43;443.33;;;;;;;;;;5082132;28;20479;-72
2022/04/13 11:15:20;;;;;;;455.80;429.17;;;;;;;;;;5094198;28;20865;-71
2022/04/13 11:17:54;;;;;;;414.80;390.93;;;;;;;;;;5093021;28;20872;-76
2022/04/13 11:20:26;;;;;;;454.50;426.30;;;;;;;;;;5093542;28;20474;-70
2022/04/13 11:23:22;;;;;;;473.77;446.70;;;;;;;;;;5094784;28;20451;-73
2022/04/13 11:26:36;;;;;;;371.90;354.17;;;;;;;;;;5091802;28;20470;-72
2022/04/13 11:29:40;;;;;;;461.17;436.37;;;;;;;;;;5082667;28;20513;-73
2022/04/13 11:32:10;;;;;;;486.10;457.70;;;;;;;;;;5084158;28;20467;-72
2022/04/13 11:37:25;;;;;;;463.63;439.53;;;;;;;;;;5085604;28;20550;-72
2022/04/13 11:40:03;;;;;;;467.43;442.93;;;;;;;;;;5099744;28;20525;-73
2022/04/13 11:42:57;;;;;;;448.20;421.70;;;;;;;;;;5075303;28;20532;-72
2022/04/13 11:45:36;;;;;;;446.50;422.50;;;;;;;;;;5024576;28;20470;-72
2022/04/13 11:48:08;;;;;;;452.23;428.13;;;;;;;;;;5091566;28;20451;-73
2022/04/13 11:50:39;;;;;;;497.23;472.17;;;;;;;;;;5093399;28;20440;-73
2022/04/13 11:53:13;;;;;;;514.47;486.90;;;;;;;;;;5086129;28;21106;-73
2022/04/13 12:02:10;;;;;;;532.10;501.00;;;;;;;;;;5101022;27;20548;-73
2022/04/13 12:04:53;;;;;;;448.53;423.50;;;;;;;;;;5107321;28;20516;-72
2022/04/13 12:07:21;;;;;;;461.47;438.07;;;;;;;;;;5109242;28;20963;-72
2022/04/13 12:09:53;;;;;;;399.87;378.83;;;;;;;;;;5111556;28;20461;-72
2022/04/13 12:12:24;;;;;;;385.57;365.77;;;;;;;;;;5110075;28;20551;-72
2022/04/13 12:14:59;;;;;;;334.10;318.87;;;;;;;;;;5110492;28;20445;-73
2022/04/13 12:17:35;;;;;;;249.73;239.70;;;;;;;;;;5104573;28;20987;-75
2022/04/13 12:20:07;;;;;;;415.47;395.97;;;;;;;;;;5114622;27;20544;-73
2022/04/13 12:22:36;;;;;;;389.50;370.70;;;;;;;;;;5090348;28;20478;-73
2022/04/13 12:25:26;;;;;;;460.90;438.40;;;;;;;;;;5105254;28;20454;-74
2022/04/13 12:28:06;;;;;;;394.57;375.67;;;;;;;;;;5122784;27;20446;-73
2022/04/13 12:30:38;;;;;;;406.17;386.83;;;;;;;;;;5129827;27;20453;-73
2022/04/13 12:33:21;;;;;;;433.27;411.83;;;;;;;;;;5130713;27;20453;-73
2022/04/13 12:35:51;;;;;;;440.90;419.17;;;;;;;;;;5109731;28;20980;-72
2022/04/13 12:41:17;;;;;;;76.40;72.47;;;;;;;;;;5097667;28;20492;-72
2022/04/13 12:43:46;;;;;;;365.40;349.80;;;;;;;;;;5089209;28;20479;-71
2022/04/13 12:46:23;;;;;;;340.47;324.77;;;;;;;;;;5089146;28;20555;-72
2022/04/13 12:48:52;;;;;;;385.10;367.60;;;;;;;;;;5089974;28;20440;-73
2022/04/13 12:51:20;;;;;;;320.70;305.97;;;;;;;;;;5119410;27;20873;-72
2022/04/13 12:57:00;;;;;;;283.00;271.80;;;;;;;;;;5106944;28;20478;-72
2022/04/13 12:59:43;;;;;;;375.23;359.03;;;;;;;;;;5113076;27;20458;-72
2022/04/13 13:02:33;;;;;;;;;;;;;;;;;;;;;
2022/04/13 13:05:05;;;;;;;327.33;314.23;;;;;;;;;;5112188;27;20503;-71
2022/04/13 13:07:38;;;;;;;365.83;349.97;;;;;;;;;;5109205;28;20545;-71
2022/04/13 13:10:14;;;;;;;342.83;327.93;;;;;;;;;;5094356;28;20448;-73
2022/04/13 13:12:56;;;;;;;424.30;404.80;;;;;;;;;;5086680;28;20467;-71
2022/04/13 13:15:41;;;;;;;416.43;397.60;;;;;;;;;;5074446;28;20531;-72
2022/04/13 13:18:11;;;;;;;530.83;502.97;;;;;;;;;;5084969;28;20591;-71
2022/04/13 13:20:55;;;;;;;407.57;389.30;;;;;;;;;;5116121;28;20545;-72
2022/04/13 13:23:26;;;;;;;289.83;277.33;;;;;;;;;;5101857;28;20539;-72
2022/04/13 13:25:55;;;;;;;389.03;371.43;;;;;;;;;;5114512;28;20703;-72
2022/04/13 13:28:30;;;;;;;453.10;429.53;;;;;;;;;;5108098;28;21079;-73
2022/04/13 13:31:03;;;;;;;463.30;439.67;;;;;;;;;;5109293;28;20464;-72
2022/04/13 13:33:41;;;;;;;448.20;427.10;;;;;;;;;;5113030;28;20545;-72
2022/04/13 13:36:17;;;;;;;466.10;443.20;;;;;;;;;;5088563;28;20455;-72
2022/04/13 13:38:50;;;;;;;468.03;445.67;;;;;;;;;;5093108;28;20485;-71
2022/04/13 13:41:21;;;;;;;494.10;469.20;;;;;;;;;;5081780;28;20732;-72
2022/04/13 13:43:48;;;;;;;470.47;445.20;;;;;;;;;;5090185;28;21016;-72
2022/04/13 13:46:25;;;;;;;518.20;491.43;;;;;;;;;;5091503;28;20463;-72
2022/04/13 13:49:02;;;;;;;534.67;505.63;;;;;;;;;;5104958;28;20750;-71
2022/04/13 13:51:30;;;;;;;506.57;479.40;;;;;;;;;;5093872;28;20427;-72
2022/04/13 13:53:58;;;;;;;429.37;409.17;;;;;;;;;;5091166;28;20466;-71
2022/04/13 13:56:26;;;;;;;478.10;454.60;;;;;;;;;;5103784;28;20442;-71
2022/04/13 13:58:56;;;;;;;527.90;500.83;;;;;;;;;;5114898;28;20555;-71
2022/04/13 14:01:27;;;;;;;512.57;486.33;;;;;;;;;;5092534;28;21071;-72
2022/04/13 14:04:00;;;;;;;493.53;469.30;;;;;;;;;;5112152;28;21037;-72
2022/04/13 14:06:32;;;;;;;514.60;489.00;;;;;;;;;;5101106;28;20464;-72
2022/04/13 14:09:02;;;;;;;533.50;504.37;;;;;;;;;;5105962;28;20459;-71
2022/04/13 14:11:33;;;;;;;445.67;423.57;;;;;;;;;;5106930;28;20447;-71
2022/04/13 14:14:03;;;;;;;511.80;486.93;;;;;;;;;;5093751;28;20565;-71
2022/04/13 14:16:31;;;;;;;547.70;517.43;;;;;;;;;;5095403;28;20445;-73
2022/04/13 14:19:15;;;;;;;488.57;461.77;;;;;;;;;;5094279;28;20487;-72
2022/04/13 14:21:43;;;;;;;447.40;427.10;;;;;;;;;;5093138;28;20456;-72
2022/04/13 14:24:21;;;;;;;485.07;458.27;;;;;;;;;;5093517;28;20470;-72
2022/04/13 14:26:50;;;;;;;497.63;473.17;;;;;;;;;;5095560;28;20452;-71
2022/04/13 14:29:26;;;;;;;415.70;395.10;;;;;;;;;;5096735;28;20452;-71
2022/04/13 14:31:55;;;;;;;387.67;368.70;;;;;;;;;;5095131;28;20945;-70
2022/04/13 14:34:29;;;;;;;447.27;425.27;;;;;;;;;;5089771;28;20455;-73
2022/04/13 14:36:57;;;;;;;501.17;475.47;;;;;;;;;;5095007;28;20469;-71
2022/04/13 14:39:25;;;;;;;476.97;453.33;;;;;;;;;;5102381;28;20475;-71
2022/04/13 14:41:54;;;;;;;482.57;458.67;;;;;;;;;;5093480;28;20443;-72
2022/04/13 14:44:21;;;;;;;541.97;512.47;;;;;;;;;;5093197;28;20547;-72
2022/04/13 14:46:50;;;;;;;539.73;507.57;;;;;;;;;;5093347;28;20443;-72
2022/04/13 14:49:19;;;;;;;496.37;467.13;;;;;;;;;;5092943;28;20439;-72
2022/04/13 14:51:49;;;;;;;557.97;527.37;;;;;;;;;;5073371;28;20839;-72